sensor_id;sensor_type;location;lat;lon;timestamp;P1;durP1;ratioP1;P2;durP2;ratioP2
15624;SDS011;7912;51.376;6.126;2023-11-18T00:00:48;20.07;;;15.97;;
15624;SDS011;7912;51.376;6.126;2023-11-18T00:03:19;18.17;;;14.70;;
15624;SDS011;7912;51.376;6.126;2023-11-18T00:05:46;23.30;;;16.33;;
15624;SDS011;7912;51.376;6.126;2023-11-18T00:08:14;18.70;;;14.57;;
15624;SDS011;7912;51.376;6.126;2023-11-18T00:10:42;20.33;;;16.07;;
15624;SDS011;7912;51.376;6.126;2023-11-18T00:16:21;20.50;;;15.87;;
15624;SDS011;7912;51.376;6.126;2023-11-18T00:18:49;20.10;;;15.93;;
15624;SDS011;7912;51.376;6.126;2023-11-18T00:21:16;19.40;;;15.67;;
15624;SDS011;7912;51.376;6.126;2023-11-18T00:23:44;22.47;;;16.43;;
15624;SDS011;7912;51.376;6.126;2023-11-18T00:26:16;21.20;;;16.57;;
15624;SDS011;7912;51.376;6.126;2023-11-18T00:28:44;21.20;;;16.83;;
15624;SDS011;7912;51.376;6.126;2023-11-18T00:31:17;22.00;;;15.87;;
15624;SDS011;7912;51.376;6.126;2023-11-18T00:33:45;21.90;;;16.67;;
15624;SDS011;7912;51.376;6.126;2023-11-18T00:36:16;20.50;;;16.30;;
15624;SDS011;7912;51.376;6.126;2023-11-18T00:38:44;21.80;;;17.03;;
15624;SDS011;7912;51.376;6.126;2023-11-18T00:41:12;21.27;;;16.27;;
15624;SDS011;7912;51.376;6.126;2023-11-18T00:43:39;21.90;;;16.33;;
15624;SDS011;7912;51.376;6.126;2023-11-18T00:46:10;22.70;;;16.70;;
15624;SDS011;7912;51.376;6.126;2023-11-18T00:48:37;22.43;;;16.87;;
15624;SDS011;7912;51.376;6.126;2023-11-18T00:51:05;20.83;;;16.53;;
15624;SDS011;7912;51.376;6.126;2023-11-18T00:53:34;20.13;;;15.67;;
15624;SDS011;7912;51.376;6.126;2023-11-18T00:56:01;19.40;;;15.70;;
15624;SDS011;7912;51.376;6.126;2023-11-18T00:58:34;21.17;;;15.67;;
15624;SDS011;7912;51.376;6.126;2023-11-18T01:01:07;20.30;;;16.10;;
15624;SDS011;7912;51.376;6.126;2023-11-18T01:03:35;21.20;;;16.50;;
15624;SDS011;7912;51.376;6.126;2023-11-18T01:06:02;19.07;;;15.63;;
15624;SDS011;7912;51.376;6.126;2023-11-18T01:08:31;18.40;;;14.40;;
15624;SDS011;7912;51.376;6.126;2023-11-18T01:10:58;20.27;;;15.53;;
15624;SDS011;7912;51.376;6.126;2023-11-18T01:13:26;22.53;;;16.93;;
15624;SDS011;7912;51.376;6.126;2023-11-18T01:15:53;20.90;;;16.00;;
15624;SDS011;7912;51.376;6.126;2023-11-18T01:18:21;22.23;;;16.13;;
15624;SDS011;7912;51.376;6.126;2023-11-18T01:20:48;22.00;;;16.50;;
15624;SDS011;7912;51.376;6.126;2023-11-18T01:23:15;27.70;;;18.20;;
15624;SDS011;7912;51.376;6.126;2023-11-18T01:25:43;26.03;;;18.30;;
15624;SDS011;7912;51.376;6.126;2023-11-18T01:28:10;24.50;;;16.60;;
15624;SDS011;7912;51.376;6.126;2023-11-18T01:30:38;26.10;;;17.03;;
15624;SDS011;7912;51.376;6.126;2023-11-18T01:33:05;20.17;;;15.33;;
15624;SDS011;7912;51.376;6.126;2023-11-18T01:35:32;22.47;;;16.70;;
15624;SDS011;7912;51.376;6.126;2023-11-18T01:37:59;22.50;;;16.00;;
15624;SDS011;7912;51.376;6.126;2023-11-18T01:40:27;19.77;;;14.83;;
15624;SDS011;7912;51.376;6.126;2023-11-18T01:42:57;20.97;;;16.00;;
15624;SDS011;7912;51.376;6.126;2023-11-18T01:45:24;19.93;;;15.63;;
15624;SDS011;7912;51.376;6.126;2023-11-18T01:47:53;20.83;;;15.13;;
15624;SDS011;7912;51.376;6.126;2023-11-18T01:50:21;21.00;;;16.77;;
15624;SDS011;7912;51.376;6.126;2023-11-18T01:52:48;20.50;;;15.60;;
15624;SDS011;7912;51.376;6.126;2023-11-18T01:55:18;23.40;;;16.57;;
15624;SDS011;7912;51.376;6.126;2023-11-18T01:57:47;22.13;;;15.87;;
15624;SDS011;7912;51.376;6.126;2023-11-18T02:00:17;21.70;;;16.80;;
15624;SDS011;7912;51.376;6.126;2023-11-18T02:02:45;19.10;;;15.10;;
15624;SDS011;7912;51.376;6.126;2023-11-18T02:05:13;20.30;;;15.23;;
15624;SDS011;7912;51.376;6.126;2023-11-18T02:07:40;22.77;;;15.10;;
15624;SDS011;7912;51.376;6.126;2023-11-18T02:10:08;20.70;;;15.67;;
15624;SDS011;7912;51.376;6.126;2023-11-18T02:15:33;19.13;;;14.90;;
15624;SDS011;7912;51.376;6.126;2023-11-18T02:18:02;22.80;;;15.40;;
15624;SDS011;7912;51.376;6.126;2023-11-18T02:20:36;19.73;;;15.50;;
15624;SDS011;7912;51.376;6.126;2023-11-18T02:23:06;20.93;;;15.77;;
15624;SDS011;7912;51.376;6.126;2023-11-18T02:28:14;20.30;;;15.87;;
15624;SDS011;7912;51.376;6.126;2023-11-18T02:30:48;20.40;;;15.80;;
15624;SDS011;7912;51.376;6.126;2023-11-18T02:33:36;21.57;;;16.13;;
15624;SDS011;7912;51.376;6.126;2023-11-18T02:36:39;19.03;;;14.23;;
15624;SDS011;7912;51.376;6.126;2023-11-18T02:39:19;20.90;;;15.27;;
15624;SDS011;7912;51.376;6.126;2023-11-18T02:42:00;20.33;;;14.67;;
15624;SDS011;7912;51.376;6.126;2023-11-18T02:44:30;21.27;;;15.50;;
15624;SDS011;7912;51.376;6.126;2023-11-18T02:46:58;20.27;;;15.83;;
15624;SDS011;7912;51.376;6.126;2023-11-18T02:49:26;19.07;;;15.20;;
15624;SDS011;7912;51.376;6.126;2023-11-18T02:51:54;22.53;;;15.90;;
15624;SDS011;7912;51.376;6.126;2023-11-18T02:54:22;19.47;;;14.87;;
15624;SDS011;7912;51.376;6.126;2023-11-18T02:56:49;17.97;;;14.60;;
15624;SDS011;7912;51.376;6.126;2023-11-18T02:59:17;20.60;;;15.47;;
15624;SDS011;7912;51.376;6.126;2023-11-18T03:01:45;19.97;;;15.17;;
15624;SDS011;7912;51.376;6.126;2023-11-18T03:04:12;20.13;;;14.93;;
15624;SDS011;7912;51.376;6.126;2023-11-18T03:06:41;19.77;;;15.67;;
15624;SDS011;7912;51.376;6.126;2023-11-18T03:11:56;20.93;;;14.63;;
15624;SDS011;7912;51.376;6.126;2023-11-18T03:14:25;17.03;;;14.07;;
15624;SDS011;7912;51.376;6.126;2023-11-18T03:16:53;18.07;;;14.00;;
15624;SDS011;7912;51.376;6.126;2023-11-18T03:19:22;20.73;;;15.03;;
15624;SDS011;7912;51.376;6.126;2023-11-18T03:21:52;21.43;;;15.13;;
15624;SDS011;7912;51.376;6.126;2023-11-18T03:24:19;18.53;;;14.10;;
15624;SDS011;7912;51.376;6.126;2023-11-18T03:26:47;18.90;;;14.73;;
15624;SDS011;7912;51.376;6.126;2023-11-18T03:29:15;18.33;;;14.33;;
15624;SDS011;7912;51.376;6.126;2023-11-18T03:31:42;19.50;;;14.60;;
15624;SDS011;7912;51.376;6.126;2023-11-18T03:34:11;18.27;;;13.57;;
15624;SDS011;7912;51.376;6.126;2023-11-18T03:36:38;20.00;;;14.70;;
15624;SDS011;7912;51.376;6.126;2023-11-18T03:39:05;20.93;;;15.70;;
15624;SDS011;7912;51.376;6.126;2023-11-18T03:41:33;20.67;;;14.83;;
15624;SDS011;7912;51.376;6.126;2023-11-18T03:44:00;18.37;;;14.03;;
15624;SDS011;7912;51.376;6.126;2023-11-18T03:46:27;19.23;;;14.03;;
15624;SDS011;7912;51.376;6.126;2023-11-18T03:49:01;21.23;;;14.33;;
15624;SDS011;7912;51.376;6.126;2023-11-18T03:51:28;19.23;;;14.33;;
15624;SDS011;7912;51.376;6.126;2023-11-18T03:53:56;20.87;;;14.40;;
15624;SDS011;7912;51.376;6.126;2023-11-18T03:56:23;20.43;;;14.03;;
15624;SDS011;7912;51.376;6.126;2023-11-18T03:58:53;17.80;;;13.57;;
15624;SDS011;7912;51.376;6.126;2023-11-18T04:01:21;24.13;;;15.03;;
15624;SDS011;7912;51.376;6.126;2023-11-18T04:03:49;18.17;;;12.80;;
15624;SDS011;7912;51.376;6.126;2023-11-18T04:06:17;17.03;;;13.23;;
15624;SDS011;7912;51.376;6.126;2023-11-18T04:08:44;21.17;;;14.43;;
15624;SDS011;7912;51.376;6.126;2023-11-18T04:11:13;19.70;;;14.47;;
15624;SDS011;7912;51.376;6.126;2023-11-18T04:13:41;21.27;;;14.00;;
15624;SDS011;7912;51.376;6.126;2023-11-18T04:16:13;18.77;;;14.40;;
15624;SDS011;7912;51.376;6.126;2023-11-18T04:18:45;18.17;;;13.73;;
15624;SDS011;7912;51.376;6.126;2023-11-18T04:21:12;21.73;;;14.10;;
15624;SDS011;7912;51.376;6.126;2023-11-18T04:23:43;18.00;;;13.13;;
15624;SDS011;7912;51.376;6.126;2023-11-18T04:26:13;19.30;;;14.23;;
15624;SDS011;7912;51.376;6.126;2023-11-18T04:28:40;17.17;;;13.90;;
15624;SDS011;7912;51.376;6.126;2023-11-18T04:31:08;17.20;;;13.53;;
15624;SDS011;7912;51.376;6.126;2023-11-18T04:33:35;22.67;;;13.77;;
15624;SDS011;7912;51.376;6.126;2023-11-18T04:36:02;15.97;;;12.53;;
15624;SDS011;7912;51.376;6.126;2023-11-18T04:38:31;16.53;;;13.03;;
15624;SDS011;7912;51.376;6.126;2023-11-18T04:40:59;18.37;;;13.60;;
15624;SDS011;7912;51.376;6.126;2023-11-18T04:43:27;14.93;;;12.57;;
15624;SDS011;7912;51.376;6.126;2023-11-18T04:46:07;17.40;;;13.40;;
15624;SDS011;7912;51.376;6.126;2023-11-18T04:48:35;16.17;;;13.30;;
15624;SDS011;7912;51.376;6.126;2023-11-18T04:51:07;17.30;;;13.37;;
15624;SDS011;7912;51.376;6.126;2023-11-18T04:53:34;17.13;;;12.97;;
15624;SDS011;7912;51.376;6.126;2023-11-18T04:56:02;17.87;;;13.60;;
15624;SDS011;7912;51.376;6.126;2023-11-18T04:58:29;18.83;;;13.70;;
15624;SDS011;7912;51.376;6.126;2023-11-18T05:00:57;17.87;;;13.10;;
15624;SDS011;7912;51.376;6.126;2023-11-18T05:03:24;16.57;;;12.57;;
15624;SDS011;7912;51.376;6.126;2023-11-18T05:05:51;17.73;;;12.93;;
15624;SDS011;7912;51.376;6.126;2023-11-18T05:08:23;16.03;;;12.10;;
15624;SDS011;7912;51.376;6.126;2023-11-18T05:10:52;17.63;;;13.10;;
15624;SDS011;7912;51.376;6.126;2023-11-18T05:13:20;15.97;;;13.30;;
15624;SDS011;7912;51.376;6.126;2023-11-18T05:15:48;17.07;;;13.10;;
15624;SDS011;7912;51.376;6.126;2023-11-18T05:18:16;17.13;;;12.97;;
15624;SDS011;7912;51.376;6.126;2023-11-18T05:20:44;15.10;;;12.73;;
15624;SDS011;7912;51.376;6.126;2023-11-18T05:23:11;17.37;;;12.53;;
15624;SDS011;7912;51.376;6.126;2023-11-18T05:25:39;17.20;;;13.17;;
15624;SDS011;7912;51.376;6.126;2023-11-18T05:28:07;15.17;;;12.60;;
15624;SDS011;7912;51.376;6.126;2023-11-18T05:30:38;17.83;;;12.87;;
15624;SDS011;7912;51.376;6.126;2023-11-18T05:33:10;16.67;;;13.10;;
15624;SDS011;7912;51.376;6.126;2023-11-18T05:35:44;19.97;;;13.23;;
15624;SDS011;7912;51.376;6.126;2023-11-18T05:38:17;16.10;;;12.80;;
15624;SDS011;7912;51.376;6.126;2023-11-18T05:40:48;16.00;;;12.53;;
15624;SDS011;7912;51.376;6.126;2023-11-18T05:43:28;18.87;;;12.50;;
15624;SDS011;7912;51.376;6.126;2023-11-18T05:46:04;15.70;;;12.83;;
15624;SDS011;7912;51.376;6.126;2023-11-18T05:48:42;16.40;;;12.30;;
15624;SDS011;7912;51.376;6.126;2023-11-18T05:51:10;18.27;;;13.20;;
15624;SDS011;7912;51.376;6.126;2023-11-18T05:53:39;16.13;;;12.97;;
15624;SDS011;7912;51.376;6.126;2023-11-18T05:56:10;16.10;;;12.73;;
15624;SDS011;7912;51.376;6.126;2023-11-18T05:58:39;16.90;;;12.67;;
15624;SDS011;7912;51.376;6.126;2023-11-18T06:01:06;15.43;;;12.37;;
15624;SDS011;7912;51.376;6.126;2023-11-18T06:03:34;15.70;;;12.03;;
15624;SDS011;7912;51.376;6.126;2023-11-18T06:06:08;15.20;;;11.40;;
15624;SDS011;7912;51.376;6.126;2023-11-18T06:08:38;15.43;;;11.73;;
15624;SDS011;7912;51.376;6.126;2023-11-18T06:11:10;16.83;;;12.03;;
15624;SDS011;7912;51.376;6.126;2023-11-18T06:13:45;16.47;;;12.23;;
15624;SDS011;7912;51.376;6.126;2023-11-18T06:16:15;15.77;;;12.53;;
15624;SDS011;7912;51.376;6.126;2023-11-18T06:18:54;16.60;;;12.27;;
15624;SDS011;7912;51.376;6.126;2023-11-18T06:21:25;16.57;;;12.73;;
15624;SDS011;7912;51.376;6.126;2023-11-18T06:24:00;16.13;;;12.43;;
15624;SDS011;7912;51.376;6.126;2023-11-18T06:26:32;19.37;;;13.00;;
15624;SDS011;7912;51.376;6.126;2023-11-18T06:29:02;16.63;;;12.37;;
15624;SDS011;7912;51.376;6.126;2023-11-18T06:31:33;15.80;;;12.13;;
15624;SDS011;7912;51.376;6.126;2023-11-18T06:34:00;17.90;;;12.33;;
15624;SDS011;7912;51.376;6.126;2023-11-18T06:36:29;17.10;;;11.87;;
15624;SDS011;7912;51.376;6.126;2023-11-18T06:38:57;17.50;;;12.73;;
15624;SDS011;7912;51.376;6.126;2023-11-18T06:41:27;18.37;;;13.33;;
15624;SDS011;7912;51.376;6.126;2023-11-18T06:44:00;17.43;;;12.80;;
15624;SDS011;7912;51.376;6.126;2023-11-18T06:46:36;15.83;;;11.87;;
15624;SDS011;7912;51.376;6.126;2023-11-18T06:49:07;16.23;;;12.37;;
15624;SDS011;7912;51.376;6.126;2023-11-18T06:51:37;16.50;;;12.13;;
15624;SDS011;7912;51.376;6.126;2023-11-18T06:54:05;17.17;;;12.60;;
15624;SDS011;7912;51.376;6.126;2023-11-18T06:56:38;16.67;;;12.17;;
15624;SDS011;7912;51.376;6.126;2023-11-18T06:59:10;16.90;;;11.60;;
15624;SDS011;7912;51.376;6.126;2023-11-18T07:01:42;18.63;;;12.83;;
15624;SDS011;7912;51.376;6.126;2023-11-18T07:04:12;16.47;;;11.63;;
15624;SDS011;7912;51.376;6.126;2023-11-18T07:06:42;20.90;;;13.47;;
15624;SDS011;7912;51.376;6.126;2023-11-18T07:09:10;17.00;;;11.77;;
15624;SDS011;7912;51.376;6.126;2023-11-18T07:11:47;18.10;;;12.67;;
15624;SDS011;7912;51.376;6.126;2023-11-18T07:14:15;20.27;;;12.73;;
15624;SDS011;7912;51.376;6.126;2023-11-18T07:16:43;16.40;;;12.30;;
15624;SDS011;7912;51.376;6.126;2023-11-18T07:19:12;18.60;;;12.53;;
15624;SDS011;7912;51.376;6.126;2023-11-18T07:21:51;14.67;;;12.10;;
15624;SDS011;7912;51.376;6.126;2023-11-18T07:24:19;17.80;;;12.10;;
15624;SDS011;7912;51.376;6.126;2023-11-18T07:26:47;16.80;;;13.23;;
15624;SDS011;7912;51.376;6.126;2023-11-18T07:29:15;17.23;;;11.97;;
15624;SDS011;7912;51.376;6.126;2023-11-18T07:31:43;16.27;;;12.00;;
15624;SDS011;7912;51.376;6.126;2023-11-18T07:34:12;16.43;;;12.03;;
15624;SDS011;7912;51.376;6.126;2023-11-18T07:36:39;17.63;;;12.07;;
15624;SDS011;7912;51.376;6.126;2023-11-18T07:39:07;16.30;;;11.70;;
15624;SDS011;7912;51.376;6.126;2023-11-18T07:41:42;16.10;;;11.73;;
15624;SDS011;7912;51.376;6.126;2023-11-18T07:44:13;16.50;;;11.47;;
15624;SDS011;7912;51.376;6.126;2023-11-18T07:46:40;16.73;;;12.07;;
15624;SDS011;7912;51.376;6.126;2023-11-18T07:49:11;16.87;;;12.33;;
15624;SDS011;7912;51.376;6.126;2023-11-18T07:51:38;19.30;;;11.60;;
15624;SDS011;7912;51.376;6.126;2023-11-18T07:54:08;18.53;;;12.47;;
15624;SDS011;7912;51.376;6.126;2023-11-18T07:56:36;17.43;;;11.70;;
15624;SDS011;7912;51.376;6.126;2023-11-18T07:59:04;16.20;;;11.60;;
15624;SDS011;7912;51.376;6.126;2023-11-18T08:01:35;16.80;;;11.77;;
15624;SDS011;7912;51.376;6.126;2023-11-18T08:04:02;15.47;;;10.93;;
15624;SDS011;7912;51.376;6.126;2023-11-18T08:06:33;16.50;;;11.67;;
15624;SDS011;7912;51.376;6.126;2023-11-18T08:09:00;14.70;;;10.90;;
15624;SDS011;7912;51.376;6.126;2023-11-18T08:11:29;16.67;;;11.43;;
15624;SDS011;7912;51.376;6.126;2023-11-18T08:13:56;15.70;;;11.10;;
15624;SDS011;7912;51.376;6.126;2023-11-18T08:16:25;12.50;;;10.27;;
15624;SDS011;7912;51.376;6.126;2023-11-18T08:18:54;13.87;;;10.43;;
15624;SDS011;7912;51.376;6.126;2023-11-18T08:21:22;15.73;;;11.43;;
15624;SDS011;7912;51.376;6.126;2023-11-18T08:23:49;12.80;;;10.43;;
15624;SDS011;7912;51.376;6.126;2023-11-18T08:26:19;14.13;;;10.20;;
15624;SDS011;7912;51.376;6.126;2023-11-18T08:28:46;14.23;;;10.50;;
15624;SDS011;7912;51.376;6.126;2023-11-18T08:31:13;14.80;;;10.10;;
15624;SDS011;7912;51.376;6.126;2023-11-18T08:33:42;13.00;;;9.73;;
15624;SDS011;7912;51.376;6.126;2023-11-18T08:36:11;14.20;;;9.80;;
15624;SDS011;7912;51.376;6.126;2023-11-18T08:38:39;14.07;;;9.80;;
15624;SDS011;7912;51.376;6.126;2023-11-18T08:41:06;11.87;;;9.50;;
15624;SDS011;7912;51.376;6.126;2023-11-18T08:43:35;13.10;;;9.67;;
15624;SDS011;7912;51.376;6.126;2023-11-18T08:46:03;11.50;;;9.20;;
15624;SDS011;7912;51.376;6.126;2023-11-18T08:48:30;11.20;;;8.50;;
15624;SDS011;7912;51.376;6.126;2023-11-18T08:51:00;13.37;;;9.27;;
15624;SDS011;7912;51.376;6.126;2023-11-18T08:53:28;12.07;;;9.63;;
15624;SDS011;7912;51.376;6.126;2023-11-18T08:55:56;13.50;;;9.27;;
15624;SDS011;7912;51.376;6.126;2023-11-18T08:58:23;11.60;;;9.30;;
15624;SDS011;7912;51.376;6.126;2023-11-18T09:00:56;11.13;;;9.07;;
15624;SDS011;7912;51.376;6.126;2023-11-18T09:03:41;10.63;;;8.63;;
15624;SDS011;7912;51.376;6.126;2023-11-18T09:06:19;12.37;;;9.37;;
15624;SDS011;7912;51.376;6.126;2023-11-18T09:08:55;12.47;;;8.73;;
15624;SDS011;7912;51.376;6.126;2023-11-18T09:11:25;11.90;;;9.07;;
15624;SDS011;7912;51.376;6.126;2023-11-18T09:13:59;12.40;;;8.83;;
15624;SDS011;7912;51.376;6.126;2023-11-18T09:16:28;11.40;;;8.60;;
15624;SDS011;7912;51.376;6.126;2023-11-18T09:18:57;13.53;;;8.83;;
15624;SDS011;7912;51.376;6.126;2023-11-18T09:27:22;10.80;;;8.50;;
15624;SDS011;7912;51.376;6.126;2023-11-18T09:29:50;11.33;;;8.37;;
15624;SDS011;7912;51.376;6.126;2023-11-18T09:32:17;11.80;;;8.23;;
15624;SDS011;7912;51.376;6.126;2023-11-18T09:34:45;10.60;;;8.47;;
15624;SDS011;7912;51.376;6.126;2023-11-18T09:37:14;10.77;;;8.00;;
15624;SDS011;7912;51.376;6.126;2023-11-18T09:39:42;11.27;;;8.20;;
15624;SDS011;7912;51.376;6.126;2023-11-18T09:42:12;11.07;;;8.90;;
15624;SDS011;7912;51.376;6.126;2023-11-18T09:44:45;10.00;;;8.80;;
15624;SDS011;7912;51.376;6.126;2023-11-18T09:47:14;11.07;;;9.13;;
15624;SDS011;7912;51.376;6.126;2023-11-18T09:49:51;12.27;;;8.47;;
15624;SDS011;7912;51.376;6.126;2023-11-18T09:52:23;11.73;;;9.40;;
15624;SDS011;7912;51.376;6.126;2023-11-18T09:55:02;10.03;;;8.37;;
15624;SDS011;7912;51.376;6.126;2023-11-18T09:57:43;9.20;;;7.40;;
15624;SDS011;7912;51.376;6.126;2023-11-18T10:00:24;10.67;;;7.77;;
15624;SDS011;7912;51.376;6.126;2023-11-18T10:02:59;10.00;;;7.10;;
15624;SDS011;7912;51.376;6.126;2023-11-18T10:05:28;9.70;;;7.40;;
15624;SDS011;7912;51.376;6.126;2023-11-18T10:07:57;11.70;;;9.00;;
15624;SDS011;7912;51.376;6.126;2023-11-18T10:10:25;9.63;;;7.53;;
15624;SDS011;7912;51.376;6.126;2023-11-18T10:13:03;8.97;;;6.90;;
15624;SDS011;7912;51.376;6.126;2023-11-18T10:15:35;8.87;;;6.93;;
15624;SDS011;7912;51.376;6.126;2023-11-18T10:18:02;9.10;;;6.43;;
15624;SDS011;7912;51.376;6.126;2023-11-18T10:20:46;9.17;;;6.60;;
15624;SDS011;7912;51.376;6.126;2023-11-18T10:23:19;9.77;;;6.50;;
15624;SDS011;7912;51.376;6.126;2023-11-18T10:25:49;8.57;;;6.30;;
15624;SDS011;7912;51.376;6.126;2023-11-18T10:33:30;8.43;;;6.57;;
15624;SDS011;7912;51.376;6.126;2023-11-18T10:35:58;10.77;;;7.47;;
15624;SDS011;7912;51.376;6.126;2023-11-18T10:38:30;8.60;;;6.43;;
15624;SDS011;7912;51.376;6.126;2023-11-18T10:41:03;6.73;;;5.77;;
15624;SDS011;7912;51.376;6.126;2023-11-18T10:43:32;8.63;;;5.13;;
15624;SDS011;7912;51.376;6.126;2023-11-18T10:46:06;8.47;;;5.77;;
15624;SDS011;7912;51.376;6.126;2023-11-18T10:48:45;7.20;;;5.70;;
15624;SDS011;7912;51.376;6.126;2023-11-18T10:51:15;8.90;;;6.27;;
15624;SDS011;7912;51.376;6.126;2023-11-18T10:53:49;7.43;;;5.60;;
15624;SDS011;7912;51.376;6.126;2023-11-18T10:56:20;8.27;;;5.87;;
15624;SDS011;7912;51.376;6.126;2023-11-18T10:58:57;6.87;;;5.60;;
15624;SDS011;7912;51.376;6.126;2023-11-18T11:01:36;7.20;;;5.43;;
15624;SDS011;7912;51.376;6.126;2023-11-18T11:04:14;6.50;;;5.20;;
15624;SDS011;7912;51.376;6.126;2023-11-18T11:06:51;7.87;;;5.20;;
15624;SDS011;7912;51.376;6.126;2023-11-18T11:09:25;7.17;;;5.57;;
15624;SDS011;7912;51.376;6.126;2023-11-18T11:12:04;6.57;;;5.30;;
15624;SDS011;7912;51.376;6.126;2023-11-18T11:14:50;7.67;;;5.37;;
15624;SDS011;7912;51.376;6.126;2023-11-18T11:17:30;6.63;;;4.83;;
15624;SDS011;7912;51.376;6.126;2023-11-18T11:20:06;9.47;;;5.27;;
15624;SDS011;7912;51.376;6.126;2023-11-18T11:25:50;8.20;;;4.90;;
15624;SDS011;7912;51.376;6.126;2023-11-18T11:29:26;6.50;;;5.10;;
15624;SDS011;7912;51.376;6.126;2023-11-18T11:32:11;8.37;;;4.60;;
15624;SDS011;7912;51.376;6.126;2023-11-18T11:35:00;6.47;;;4.87;;
15624;SDS011;7912;51.376;6.126;2023-11-18T11:37:35;6.83;;;4.70;;
15624;SDS011;7912;51.376;6.126;2023-11-18T11:40:04;6.80;;;4.87;;
15624;SDS011;7912;51.376;6.126;2023-11-18T11:42:40;5.17;;;4.67;;
15624;SDS011;7912;51.376;6.126;2023-11-18T11:45:09;6.40;;;4.50;;
15624;SDS011;7912;51.376;6.126;2023-11-18T11:47:49;6.80;;;4.33;;
15624;SDS011;7912;51.376;6.126;2023-11-18T11:50:25;5.07;;;4.50;;
15624;SDS011;7912;51.376;6.126;2023-11-18T11:53:03;7.93;;;5.00;;
15624;SDS011;7912;51.376;6.126;2023-11-18T11:55:46;5.50;;;4.63;;
15624;SDS011;7912;51.376;6.126;2023-11-18T11:58:31;6.53;;;4.70;;
15624;SDS011;7912;51.376;6.126;2023-11-18T12:01:24;6.27;;;4.57;;
15624;SDS011;7912;51.376;6.126;2023-11-18T12:04:04;6.03;;;4.90;;
15624;SDS011;7912;51.376;6.126;2023-11-18T12:06:41;4.63;;;3.40;;
15624;SDS011;7912;51.376;6.126;2023-11-18T12:09:10;6.20;;;4.23;;
15624;SDS011;7912;51.376;6.126;2023-11-18T12:11:48;4.73;;;4.27;;
15624;SDS011;7912;51.376;6.126;2023-11-18T12:14:16;5.17;;;4.00;;
15624;SDS011;7912;51.376;6.126;2023-11-18T12:17:03;4.47;;;3.90;;
15624;SDS011;7912;51.376;6.126;2023-11-18T12:19:48;6.67;;;4.20;;
15624;SDS011;7912;51.376;6.126;2023-11-18T12:22:17;4.50;;;3.50;;
15624;SDS011;7912;51.376;6.126;2023-11-18T12:35:28;4.93;;;3.17;;
15624;SDS011;7912;51.376;6.126;2023-11-18T12:47:02;4.40;;;2.70;;
15624;SDS011;7912;51.376;6.126;2023-11-18T12:49:41;3.90;;;2.70;;
15624;SDS011;7912;51.376;6.126;2023-11-18T12:52:12;5.00;;;2.67;;
15624;SDS011;7912;51.376;6.126;2023-11-18T12:54:41;4.23;;;2.77;;
15624;SDS011;7912;51.376;6.126;2023-11-18T12:57:10;4.23;;;2.60;;
15624;SDS011;7912;51.376;6.126;2023-11-18T12:59:41;4.03;;;2.20;;
15624;SDS011;7912;51.376;6.126;2023-11-18T13:02:12;5.80;;;2.63;;
15624;SDS011;7912;51.376;6.126;2023-11-18T13:04:48;3.20;;;2.20;;
15624;SDS011;7912;51.376;6.126;2023-11-18T13:07:16;5.20;;;2.20;;
15624;SDS011;7912;51.376;6.126;2023-11-18T13:09:47;4.37;;;2.20;;
15624;SDS011;7912;51.376;6.126;2023-11-18T13:12:16;4.43;;;2.00;;
15624;SDS011;7912;51.376;6.126;2023-11-18T13:17:59;5.50;;;2.07;;
15624;SDS011;7912;51.376;6.126;2023-11-18T13:20:33;3.00;;;2.27;;
15624;SDS011;7912;51.376;6.126;2023-11-18T13:26:14;4.47;;;2.30;;
15624;SDS011;7912;51.376;6.126;2023-11-18T13:28:42;3.90;;;2.30;;
15624;SDS011;7912;51.376;6.126;2023-11-18T13:31:10;4.23;;;2.40;;
15624;SDS011;7912;51.376;6.126;2023-11-18T13:33:40;3.43;;;2.43;;
15624;SDS011;7912;51.376;6.126;2023-11-18T13:36:14;3.03;;;2.33;;
15624;SDS011;7912;51.376;6.126;2023-11-18T13:38:41;3.80;;;2.30;;
15624;SDS011;7912;51.376;6.126;2023-11-18T13:41:10;3.77;;;2.30;;
15624;SDS011;7912;51.376;6.126;2023-11-18T13:43:43;5.77;;;2.13;;
15624;SDS011;7912;51.376;6.126;2023-11-18T13:46:14;3.97;;;2.93;;
15624;SDS011;7912;51.376;6.126;2023-11-18T13:48:48;4.00;;;3.23;;
15624;SDS011;7912;51.376;6.126;2023-11-18T13:51:15;4.37;;;2.47;;
15624;SDS011;7912;51.376;6.126;2023-11-18T13:53:48;3.20;;;2.40;;
15624;SDS011;7912;51.376;6.126;2023-11-18T13:56:24;3.57;;;2.37;;
15624;SDS011;7912;51.376;6.126;2023-11-18T13:58:54;3.10;;;2.10;;
15624;SDS011;7912;51.376;6.126;2023-11-18T14:01:21;5.00;;;2.43;;
15624;SDS011;7912;51.376;6.126;2023-11-18T14:03:49;3.30;;;2.30;;
15624;SDS011;7912;51.376;6.126;2023-11-18T14:06:21;4.70;;;2.60;;
15624;SDS011;7912;51.376;6.126;2023-11-18T14:08:52;3.77;;;2.50;;
15624;SDS011;7912;51.376;6.126;2023-11-18T14:11:22;3.17;;;2.50;;
15624;SDS011;7912;51.376;6.126;2023-11-18T14:13:55;5.17;;;2.80;;
15624;SDS011;7912;51.376;6.126;2023-11-18T14:16:25;3.67;;;2.53;;
15624;SDS011;7912;51.376;6.126;2023-11-18T14:18:59;4.10;;;2.47;;
15624;SDS011;7912;51.376;6.126;2023-11-18T14:21:27;2.97;;;2.20;;
15624;SDS011;7912;51.376;6.126;2023-11-18T14:23:55;2.97;;;2.57;;
15624;SDS011;7912;51.376;6.126;2023-11-18T14:26:29;4.87;;;2.30;;
15624;SDS011;7912;51.376;6.126;2023-11-18T14:28:57;3.07;;;2.20;;
15624;SDS011;7912;51.376;6.126;2023-11-18T14:31:31;2.50;;;2.17;;
15624;SDS011;7912;51.376;6.126;2023-11-18T14:33:59;2.80;;;2.40;;
15624;SDS011;7912;51.376;6.126;2023-11-18T14:36:28;4.37;;;2.90;;
15624;SDS011;7912;51.376;6.126;2023-11-18T14:39:02;3.63;;;2.50;;
15624;SDS011;7912;51.376;6.126;2023-11-18T14:41:36;3.67;;;2.67;;
15624;SDS011;7912;51.376;6.126;2023-11-18T14:44:04;6.37;;;3.20;;
15624;SDS011;7912;51.376;6.126;2023-11-18T14:46:32;5.17;;;3.00;;
15624;SDS011;7912;51.376;6.126;2023-11-18T14:48:59;3.00;;;2.70;;
15624;SDS011;7912;51.376;6.126;2023-11-18T14:51:27;3.73;;;2.80;;
15624;SDS011;7912;51.376;6.126;2023-11-18T14:54:25;3.30;;;3.00;;
15624;SDS011;7912;51.376;6.126;2023-11-18T15:02:33;3.30;;;2.37;;
15624;SDS011;7912;51.376;6.126;2023-11-18T15:06:03;2.73;;;2.27;;
15624;SDS011;7912;51.376;6.126;2023-11-18T15:09:22;5.80;;;2.50;;
15624;SDS011;7912;51.376;6.126;2023-11-18T15:12:16;2.80;;;2.40;;
15624;SDS011;7912;51.376;6.126;2023-11-18T15:15:08;2.53;;;2.30;;
15624;SDS011;7912;51.376;6.126;2023-11-18T15:18:29;2.70;;;2.00;;
15624;SDS011;7912;51.376;6.126;2023-11-18T15:21:22;2.40;;;2.20;;
15624;SDS011;7912;51.376;6.126;2023-11-18T15:25:10;2.60;;;2.27;;
15624;SDS011;7912;51.376;6.126;2023-11-18T15:35:43;2.67;;;2.30;;
15624;SDS011;7912;51.376;6.126;2023-11-18T15:38:12;2.57;;;2.10;;
15624;SDS011;7912;51.376;6.126;2023-11-18T15:40:44;3.10;;;2.20;;
15624;SDS011;7912;51.376;6.126;2023-11-18T15:43:16;2.30;;;2.00;;
15624;SDS011;7912;51.376;6.126;2023-11-18T15:45:43;1.97;;;1.77;;
15624;SDS011;7912;51.376;6.126;2023-11-18T15:48:14;2.17;;;1.97;;
15624;SDS011;7912;51.376;6.126;2023-11-18T15:50:42;2.53;;;1.70;;
15624;SDS011;7912;51.376;6.126;2023-11-18T15:53:09;2.43;;;2.20;;
15624;SDS011;7912;51.376;6.126;2023-11-18T15:55:41;3.03;;;2.40;;
15624;SDS011;7912;51.376;6.126;2023-11-18T15:58:10;2.07;;;1.87;;
15624;SDS011;7912;51.376;6.126;2023-11-18T16:00:37;2.20;;;2.00;;
15624;SDS011;7912;51.376;6.126;2023-11-18T16:03:07;2.77;;;1.90;;
15624;SDS011;7912;51.376;6.126;2023-11-18T16:05:35;2.47;;;2.03;;
15624;SDS011;7912;51.376;6.126;2023-11-18T16:08:03;2.43;;;2.23;;
15624;SDS011;7912;51.376;6.126;2023-11-18T16:10:34;3.73;;;3.30;;
15624;SDS011;7912;51.376;6.126;2023-11-18T16:13:04;3.00;;;2.70;;
15624;SDS011;7912;51.376;6.126;2023-11-18T16:15:33;2.53;;;2.33;;
15624;SDS011;7912;51.376;6.126;2023-11-18T16:18:00;3.20;;;2.70;;